Dafter, MI

4:41 PM EST on November 23, 2014 (GMT -0500)
Chippewa County International | Change Station
CLOSE
Current Station
Airport
Location: Chippewa,
Elevation: 801 ft
Nearby Weather Stations
Active Advisory: Dense Fog Advisory

Elev 801 ft 46.25 °N, 84.48 °W | Updated 6 minutes ago

Fog
Fog
41 °F
Feels Like 34 °F
N
12
Wind Variable Wind from SE

Today
High -- | Low -- °F
--% Chance of Precip.
Yesterday
High -- | Low -- °F
Precip. -- in
7:50 AM 4:57 PM
New Moon, 2% visible
Pressure 29.57 in
Visibility 0.2 miles
Clouds Overcast 200 ft
Windchill 34 °F
Dew Point 41 °F
Humidity 100%
Rainfall 0.00 in
Snow Depth Not available.
UV 0 out of 12
Pollen .10 out of 12
Air Quality Not available.
Flu Activity Not available.
METAR KCIU 232135Z AUTO 13010KT M1/4SM OVC002 05/05 A2957 RMK AO1

More Conditions Fewer Conditions

Pressure 29.57 in
Visibility 0.2 miles
Clouds Overcast 200 ft
Windchill 34 °F
Dew Point 41 °F
Humidity 100%
Rainfall 0.00 in
Snow Depth Not available.
UV 0 out of 12
Pollen .10 out of 12
Air Quality Not available.
Flu Activity Not available.
METAR KCIU 232135Z AUTO 13010KT M1/4SM OVC002 05/05 A2957 RMK AO1

More Conditions Fewer Conditions

Nowcast | as of 4:00 PM EST on November 23, 2014

dense fog advisory in effect until 7 PM EST this evening... At 5 PM...areas of dense fog. Rain. Temperature 41. Visibility one quarter mile or less at times. Southeast winds 8 mph. At 7 PM...areas of fog. Rain. Temperature 42. Southeast winds 8 mph. At 9 PM...areas of fog. Rain. Temperature 41. Southeast winds 9 mph. At 11 PM...areas of fog. Rain. Temperature 41. Southeast winds 9 mph.

×

10-Day Weather Forecast

Almanac

Astronomy

Nov. 23, 2014 Rise Set
Actual Time
Civil Twilight
Nautical Twilight
Astronomical Twilight
Moon
Length of Visible Light
Length of Day
Tomorrow will be .
, % of the Moon is Illuminated

Today's Extremes

State Highs State Lows

Community

WunderPhotos

Upload Photos

1,773,183 photos uploaded!

WunderBlogs® & News

Nearby

Air Quality

  Air Quality AQ Index Pollutant
Not available.

Snow Depth

Station Depth Elevation

Earthquake Activity

City Distance Mag. Time & Date
Minimum magnitude displayed is 2.5.

Coastal Water Temperatures

Place Temperature

Nearby Weather Stations